createdAt,value
2023-03-13T00:03:57.591Z,193.07
2023-03-13T00:14:04.221Z,191.53
2023-03-13T00:24:12.463Z,193.50
2023-03-13T00:34:16.311Z,194.83
2023-03-13T00:44:21.556Z,194.27
2023-03-13T00:54:25.313Z,192.87
2023-03-13T01:04:30.589Z,193.80
2023-03-13T01:14:34.369Z,189.00
2023-03-13T01:24:39.621Z,192.90
2023-03-13T01:34:43.547Z,193.10
2023-03-13T01:44:57.307Z,197.87
2023-03-13T01:55:09.570Z,197.00
2023-03-13T02:05:18.649Z,197.10
2023-03-13T02:15:28.103Z,200.20
2023-03-13T02:25:43.657Z,200.97
2023-03-13T02:35:50.150Z,203.00
2023-03-13T02:46:08.324Z,195.07
2023-03-13T02:56:19.512Z,199.07
2023-03-13T03:06:25.835Z,194.57
2023-03-13T03:16:31.790Z,197.03
2023-03-13T03:26:37.666Z,194.37
2023-03-13T03:36:48.191Z,195.33
2023-03-13T03:46:53.523Z,198.73
2023-03-13T03:56:58.700Z,197.17
2023-03-13T04:07:04.225Z,197.73
2023-03-13T04:17:09.910Z,199.60
2023-03-13T04:27:15.732Z,200.93
2023-03-13T04:37:22.004Z,199.27
2023-03-13T04:47:39.214Z,203.90
2023-03-13T04:58:05.903Z,201.67
2023-03-13T05:08:33.362Z,204.93
2023-03-13T05:19:00.979Z,200.17
2023-03-13T05:29:19.432Z,205.83
2023-03-13T05:39:36.722Z,205.53
2023-03-13T05:49:59.449Z,209.20
2023-03-13T06:00:22.402Z,205.27
2023-03-13T06:10:41.126Z,207.63
2023-03-13T06:20:45.056Z,209.40
2023-03-13T06:30:50.450Z,204.23
2023-03-13T06:40:54.900Z,207.20
2023-03-13T06:51:00.138Z,212.83
2023-03-13T07:01:09.216Z,209.90
2023-03-13T07:11:17.358Z,227.03
2023-03-13T07:21:21.062Z,216.30
2023-03-13T07:31:26.728Z,214.77
2023-03-13T07:41:30.556Z,208.83
2023-03-13T07:51:43.359Z,218.77
2023-03-13T08:01:48.008Z,213.33
2023-03-13T08:11:53.306Z,214.93
2023-03-13T08:21:57.154Z,217.90
2023-03-13T08:32:02.342Z,219.23
2023-03-13T08:42:06.641Z,219.10
2023-03-13T08:52:12.168Z,216.20
2023-03-13T09:23:53.732Z,222.13
2023-03-13T10:12:44.765Z,215.38
2023-03-13T10:22:52.670Z,218.35
2023-03-13T10:33:01.414Z,219.00
2023-03-13T10:43:07.617Z,215.55
2023-03-13T10:53:34.355Z,212.27
2023-03-13T11:03:37.874Z,213.25
2023-03-13T11:13:45.259Z,219.75
2023-03-13T11:23:55.841Z,223.40
2023-03-13T11:34:07.869Z,216.13
2023-03-13T11:44:45.157Z,220.47
2023-03-13T11:55:14.331Z,214.87
2023-03-13T12:05:21.447Z,223.27
2023-03-13T12:15:31.345Z,213.73
2023-03-13T12:25:39.951Z,220.40
2023-03-13T12:35:49.365Z,211.23
2023-03-13T12:46:24.723Z,213.87
2023-03-13T12:56:43.986Z,218.97
2023-03-13T13:07:02.412Z,217.33
2023-03-13T13:17:21.810Z,219.07
2023-03-13T13:27:47.962Z,218.33
2023-03-13T13:37:53.329Z,212.63
2023-03-13T13:48:36.000Z,218.47
2023-03-13T13:58:46.922Z,216.17
2023-03-13T14:08:55.590Z,214.03
2023-03-13T14:19:00.496Z,219.33
2023-03-13T14:29:07.728Z,224.90
2023-03-13T14:39:20.784Z,219.57
2023-03-13T14:49:29.649Z,209.30
2023-03-13T14:59:34.637Z,217.33
2023-03-13T15:09:43.993Z,211.07
2023-03-13T15:19:54.931Z,213.03
2023-03-13T15:29:58.470Z,212.63
2023-03-13T15:40:07.599Z,208.43
2023-03-13T15:50:14.639Z,204.80
2023-03-13T16:00:22.671Z,208.10
2023-03-13T16:10:29.943Z,218.07
2023-03-13T16:20:36.046Z,224.60
2023-03-13T16:30:41.468Z,228.33
2023-03-13T16:40:46.968Z,212.60
2023-03-13T16:50:50.707Z,258.50
2023-03-13T17:01:05.070Z,220.43
2023-03-13T17:11:14.965Z,204.70
2023-03-13T17:21:23.608Z,202.43
2023-03-13T17:31:29.241Z,201.90
2023-03-13T17:41:36.447Z,199.50
2023-03-13T17:51:41.514Z,197.57
2023-03-13T18:01:47.059Z,202.77
2023-03-13T18:11:51.605Z,210.93
2023-03-13T18:21:57.162Z,197.50
2023-03-13T18:32:01.433Z,207.20
2023-03-13T18:42:07.948Z,206.63
2023-03-13T18:52:13.231Z,206.67
2023-03-13T19:02:19.877Z,203.10
2023-03-13T19:12:23.361Z,200.93
2023-03-13T19:22:28.563Z,204.27
2023-03-13T19:32:32.070Z,193.57
2023-03-13T19:42:36.859Z,209.50
2023-03-13T19:52:40.667Z,207.00
2023-03-13T20:02:45.768Z,193.00
2023-03-13T20:12:49.318Z,197.17
2023-03-13T20:22:56.444Z,192.23
2023-03-13T20:33:00.293Z,198.13
2023-03-13T20:43:05.708Z,200.10
2023-03-13T20:53:10.120Z,191.47
2023-03-13T21:03:15.321Z,195.90
2023-03-13T21:13:18.766Z,201.83
2023-03-13T21:23:24.664Z,200.53
2023-03-13T21:33:28.163Z,197.53
2023-03-13T21:43:32.984Z,200.63
2023-03-13T21:53:36.706Z,201.37
2023-03-13T22:03:42.091Z,196.67
2023-03-13T22:13:45.784Z,189.87
2023-03-13T22:23:50.704Z,190.17
2023-03-13T22:33:54.153Z,190.67
2023-03-13T22:43:58.960Z,191.17
2023-03-13T22:54:02.405Z,186.90
2023-03-13T23:04:07.569Z,193.03
2023-03-13T23:14:11.011Z,194.83
2023-03-13T23:24:15.931Z,196.27
2023-03-13T23:34:21.994Z,192.17
2023-03-13T23:44:27.011Z,193.80
2023-03-13T23:54:30.473Z,193.30
